sensor_id;sensor_type;location;lat;lon;timestamp;P1;durP1;ratioP1;P2;durP2;ratioP2
7517;SDS011;3800;48.922;9.444;2022-07-26T00:01:48;6.83;;;2.23;;
7517;SDS011;3800;48.922;9.444;2022-07-26T00:04:17;4.27;;;2.10;;
7517;SDS011;3800;48.922;9.444;2022-07-26T00:06:45;4.63;;;2.03;;
7517;SDS011;3800;48.922;9.444;2022-07-26T00:09:13;2.30;;;2.10;;
7517;SDS011;3800;48.922;9.444;2022-07-26T00:11:41;4.20;;;2.60;;
7517;SDS011;3800;48.922;9.444;2022-07-26T00:14:11;2.73;;;2.00;;
7517;SDS011;3800;48.922;9.444;2022-07-26T00:16:39;5.53;;;2.17;;
7517;SDS011;3800;48.922;9.444;2022-07-26T00:19:07;4.47;;;2.00;;
7517;SDS011;3800;48.922;9.444;2022-07-26T00:21:35;2.10;;;1.90;;
7517;SDS011;3800;48.922;9.444;2022-07-26T00:24:04;2.77;;;2.00;;
7517;SDS011;3800;48.922;9.444;2022-07-26T00:26:32;3.83;;;2.00;;
7517;SDS011;3800;48.922;9.444;2022-07-26T00:29:02;3.90;;;2.17;;
7517;SDS011;3800;48.922;9.444;2022-07-26T00:31:30;3.50;;;1.83;;
7517;SDS011;3800;48.922;9.444;2022-07-26T00:33:58;4.17;;;2.00;;
7517;SDS011;3800;48.922;9.444;2022-07-26T00:36:26;2.87;;;2.07;;
7517;SDS011;3800;48.922;9.444;2022-07-26T00:38:54;3.07;;;2.07;;
7517;SDS011;3800;48.922;9.444;2022-07-26T00:41:22;2.80;;;2.13;;
7517;SDS011;3800;48.922;9.444;2022-07-26T00:43:53;3.33;;;2.00;;
7517;SDS011;3800;48.922;9.444;2022-07-26T00:46:21;2.80;;;1.90;;
7517;SDS011;3800;48.922;9.444;2022-07-26T00:48:50;4.13;;;1.90;;
7517;SDS011;3800;48.922;9.444;2022-07-26T00:51:19;2.67;;;1.90;;
7517;SDS011;3800;48.922;9.444;2022-07-26T00:53:47;2.70;;;1.90;;
7517;SDS011;3800;48.922;9.444;2022-07-26T00:56:16;2.33;;;1.90;;
7517;SDS011;3800;48.922;9.444;2022-07-26T00:58:44;2.43;;;2.03;;
7517;SDS011;3800;48.922;9.444;2022-07-26T01:01:12;3.50;;;2.00;;
7517;SDS011;3800;48.922;9.444;2022-07-26T01:03:41;2.77;;;1.87;;
7517;SDS011;3800;48.922;9.444;2022-07-26T01:06:10;3.37;;;2.00;;
7517;SDS011;3800;48.922;9.444;2022-07-26T01:08:38;6.57;;;2.43;;
7517;SDS011;3800;48.922;9.444;2022-07-26T01:11:06;3.00;;;2.27;;
7517;SDS011;3800;48.922;9.444;2022-07-26T01:13:35;5.00;;;2.20;;
7517;SDS011;3800;48.922;9.444;2022-07-26T01:16:03;2.90;;;1.87;;
7517;SDS011;3800;48.922;9.444;2022-07-26T01:18:31;4.47;;;2.30;;
7517;SDS011;3800;48.922;9.444;2022-07-26T01:20:59;2.97;;;2.10;;
7517;SDS011;3800;48.922;9.444;2022-07-26T01:23:28;4.57;;;1.80;;
7517;SDS011;3800;48.922;9.444;2022-07-26T01:25:58;3.23;;;2.07;;
7517;SDS011;3800;48.922;9.444;2022-07-26T01:28:27;4.27;;;2.00;;
7517;SDS011;3800;48.922;9.444;2022-07-26T01:30:55;5.07;;;2.23;;
7517;SDS011;3800;48.922;9.444;2022-07-26T01:33:23;4.37;;;2.50;;
7517;SDS011;3800;48.922;9.444;2022-07-26T01:35:51;5.07;;;2.30;;
7517;SDS011;3800;48.922;9.444;2022-07-26T01:38:20;3.87;;;2.30;;
7517;SDS011;3800;48.922;9.444;2022-07-26T01:40:49;3.80;;;1.90;;
7517;SDS011;3800;48.922;9.444;2022-07-26T01:43:18;4.03;;;2.20;;
7517;SDS011;3800;48.922;9.444;2022-07-26T01:45:46;2.87;;;2.30;;
7517;SDS011;3800;48.922;9.444;2022-07-26T01:48:14;3.30;;;2.17;;
7517;SDS011;3800;48.922;9.444;2022-07-26T01:50:42;3.30;;;2.07;;
7517;SDS011;3800;48.922;9.444;2022-07-26T01:53:11;3.33;;;2.30;;
7517;SDS011;3800;48.922;9.444;2022-07-26T01:55:40;3.17;;;2.40;;
7517;SDS011;3800;48.922;9.444;2022-07-26T01:58:08;5.00;;;2.00;;
7517;SDS011;3800;48.922;9.444;2022-07-26T02:00:36;3.13;;;2.00;;
7517;SDS011;3800;48.922;9.444;2022-07-26T02:03:04;4.13;;;2.43;;
7517;SDS011;3800;48.922;9.444;2022-07-26T02:05:33;2.60;;;2.40;;
7517;SDS011;3800;48.922;9.444;2022-07-26T02:08:01;3.30;;;2.27;;
7517;SDS011;3800;48.922;9.444;2022-07-26T02:10:29;2.33;;;1.93;;
7517;SDS011;3800;48.922;9.444;2022-07-26T02:13:03;2.67;;;2.03;;
7517;SDS011;3800;48.922;9.444;2022-07-26T02:15:31;3.43;;;2.30;;
7517;SDS011;3800;48.922;9.444;2022-07-26T02:17:59;2.87;;;2.27;;
7517;SDS011;3800;48.922;9.444;2022-07-26T02:20:28;4.50;;;2.77;;
7517;SDS011;3800;48.922;9.444;2022-07-26T02:22:56;4.47;;;2.53;;
7517;SDS011;3800;48.922;9.444;2022-07-26T02:25:24;3.27;;;2.40;;
7517;SDS011;3800;48.922;9.444;2022-07-26T02:27:52;4.97;;;2.30;;
7517;SDS011;3800;48.922;9.444;2022-07-26T02:30:21;4.00;;;2.27;;
7517;SDS011;3800;48.922;9.444;2022-07-26T02:32:49;3.23;;;2.10;;
7517;SDS011;3800;48.922;9.444;2022-07-26T02:35:17;4.53;;;2.20;;
7517;SDS011;3800;48.922;9.444;2022-07-26T02:37:45;2.43;;;2.23;;
7517;SDS011;3800;48.922;9.444;2022-07-26T02:40:14;3.80;;;2.17;;
7517;SDS011;3800;48.922;9.444;2022-07-26T02:42:42;2.20;;;1.90;;
7517;SDS011;3800;48.922;9.444;2022-07-26T02:45:10;3.03;;;2.23;;
7517;SDS011;3800;48.922;9.444;2022-07-26T02:47:47;2.90;;;1.93;;
7517;SDS011;3800;48.922;9.444;2022-07-26T02:50:15;2.43;;;2.20;;
7517;SDS011;3800;48.922;9.444;2022-07-26T02:52:44;2.60;;;2.40;;
7517;SDS011;3800;48.922;9.444;2022-07-26T02:55:13;4.00;;;2.43;;
7517;SDS011;3800;48.922;9.444;2022-07-26T02:57:43;2.73;;;2.30;;
7517;SDS011;3800;48.922;9.444;2022-07-26T03:00:11;3.33;;;2.23;;
7517;SDS011;3800;48.922;9.444;2022-07-26T03:02:40;2.63;;;2.40;;
7517;SDS011;3800;48.922;9.444;2022-07-26T03:05:09;2.67;;;2.27;;
7517;SDS011;3800;48.922;9.444;2022-07-26T03:07:37;2.50;;;2.30;;
7517;SDS011;3800;48.922;9.444;2022-07-26T03:10:05;3.70;;;2.20;;
7517;SDS011;3800;48.922;9.444;2022-07-26T03:12:34;3.27;;;2.70;;
7517;SDS011;3800;48.922;9.444;2022-07-26T03:15:03;2.40;;;2.20;;
7517;SDS011;3800;48.922;9.444;2022-07-26T03:17:31;2.70;;;2.50;;
7517;SDS011;3800;48.922;9.444;2022-07-26T03:19:59;4.53;;;2.50;;
7517;SDS011;3800;48.922;9.444;2022-07-26T03:22:28;3.07;;;2.33;;
7517;SDS011;3800;48.922;9.444;2022-07-26T03:24:57;5.37;;;2.50;;
7517;SDS011;3800;48.922;9.444;2022-07-26T03:27:25;3.63;;;2.40;;
7517;SDS011;3800;48.922;9.444;2022-07-26T03:29:53;3.00;;;2.70;;
7517;SDS011;3800;48.922;9.444;2022-07-26T03:32:21;3.17;;;2.60;;
7517;SDS011;3800;48.922;9.444;2022-07-26T03:34:50;3.73;;;2.90;;
7517;SDS011;3800;48.922;9.444;2022-07-26T03:37:18;3.67;;;2.47;;
7517;SDS011;3800;48.922;9.444;2022-07-26T03:39:46;3.03;;;2.70;;
7517;SDS011;3800;48.922;9.444;2022-07-26T03:42:14;2.87;;;2.37;;
7517;SDS011;3800;48.922;9.444;2022-07-26T03:44:43;2.40;;;2.20;;
7517;SDS011;3800;48.922;9.444;2022-07-26T03:47:12;3.73;;;2.30;;
7517;SDS011;3800;48.922;9.444;2022-07-26T03:49:40;3.03;;;2.37;;
7517;SDS011;3800;48.922;9.444;2022-07-26T03:52:08;2.83;;;2.50;;
7517;SDS011;3800;48.922;9.444;2022-07-26T03:54:36;2.67;;;2.47;;
7517;SDS011;3800;48.922;9.444;2022-07-26T03:57:05;3.03;;;2.73;;
7517;SDS011;3800;48.922;9.444;2022-07-26T03:59:34;4.20;;;2.67;;
7517;SDS011;3800;48.922;9.444;2022-07-26T04:02:02;2.97;;;2.43;;
7517;SDS011;3800;48.922;9.444;2022-07-26T04:04:31;3.03;;;2.40;;
7517;SDS011;3800;48.922;9.444;2022-07-26T04:06:59;2.40;;;2.20;;
7517;SDS011;3800;48.922;9.444;2022-07-26T04:09:28;2.90;;;2.40;;
7517;SDS011;3800;48.922;9.444;2022-07-26T04:11:57;4.70;;;2.67;;
7517;SDS011;3800;48.922;9.444;2022-07-26T04:14:26;3.73;;;2.50;;
7517;SDS011;3800;48.922;9.444;2022-07-26T04:16:54;3.47;;;2.50;;
7517;SDS011;3800;48.922;9.444;2022-07-26T04:19:22;3.17;;;2.70;;
7517;SDS011;3800;48.922;9.444;2022-07-26T04:21:50;2.83;;;2.33;;
7517;SDS011;3800;48.922;9.444;2022-07-26T04:24:19;3.13;;;2.70;;
7517;SDS011;3800;48.922;9.444;2022-07-26T04:26:48;2.47;;;2.27;;
7517;SDS011;3800;48.922;9.444;2022-07-26T04:29:16;2.70;;;2.50;;
7517;SDS011;3800;48.922;9.444;2022-07-26T04:31:44;3.57;;;2.90;;
7517;SDS011;3800;48.922;9.444;2022-07-26T04:34:12;5.20;;;2.80;;
7517;SDS011;3800;48.922;9.444;2022-07-26T04:36:41;3.70;;;2.57;;
7517;SDS011;3800;48.922;9.444;2022-07-26T04:39:10;3.13;;;2.50;;
7517;SDS011;3800;48.922;9.444;2022-07-26T04:41:38;4.47;;;2.90;;
7517;SDS011;3800;48.922;9.444;2022-07-26T04:44:06;3.00;;;2.70;;
7517;SDS011;3800;48.922;9.444;2022-07-26T04:46:34;3.20;;;2.60;;
7517;SDS011;3800;48.922;9.444;2022-07-26T04:49:03;3.90;;;2.57;;
7517;SDS011;3800;48.922;9.444;2022-07-26T04:51:31;3.67;;;2.90;;
7517;SDS011;3800;48.922;9.444;2022-07-26T04:53:59;3.03;;;2.70;;
7517;SDS011;3800;48.922;9.444;2022-07-26T04:56:27;3.70;;;2.67;;
7517;SDS011;3800;48.922;9.444;2022-07-26T04:58:56;6.67;;;3.00;;
7517;SDS011;3800;48.922;9.444;2022-07-26T05:01:24;3.77;;;2.87;;
7517;SDS011;3800;48.922;9.444;2022-07-26T05:03:52;3.13;;;2.73;;
7517;SDS011;3800;48.922;9.444;2022-07-26T05:06:20;3.53;;;2.83;;
7517;SDS011;3800;48.922;9.444;2022-07-26T05:08:49;3.57;;;3.00;;
7517;SDS011;3800;48.922;9.444;2022-07-26T05:11:17;2.97;;;2.60;;
7517;SDS011;3800;48.922;9.444;2022-07-26T05:13:45;4.03;;;3.20;;
7517;SDS011;3800;48.922;9.444;2022-07-26T05:16:13;4.80;;;3.20;;
7517;SDS011;3800;48.922;9.444;2022-07-26T05:18:42;4.63;;;2.97;;
7517;SDS011;3800;48.922;9.444;2022-07-26T05:21:10;3.17;;;2.80;;
7517;SDS011;3800;48.922;9.444;2022-07-26T05:23:38;4.17;;;3.27;;
7517;SDS011;3800;48.922;9.444;2022-07-26T05:26:08;4.53;;;3.10;;
7517;SDS011;3800;48.922;9.444;2022-07-26T05:28:37;3.63;;;3.00;;
7517;SDS011;3800;48.922;9.444;2022-07-26T05:31:05;5.60;;;3.33;;
7517;SDS011;3800;48.922;9.444;2022-07-26T05:33:33;3.50;;;3.20;;
7517;SDS011;3800;48.922;9.444;2022-07-26T05:36:01;4.93;;;3.60;;
7517;SDS011;3800;48.922;9.444;2022-07-26T05:38:30;4.57;;;3.43;;
7517;SDS011;3800;48.922;9.444;2022-07-26T05:40:58;4.37;;;3.30;;
7517;SDS011;3800;48.922;9.444;2022-07-26T05:43:26;3.60;;;3.30;;
7517;SDS011;3800;48.922;9.444;2022-07-26T05:45:55;3.90;;;3.20;;
7517;SDS011;3800;48.922;9.444;2022-07-26T05:48:23;3.97;;;3.40;;
7517;SDS011;3800;48.922;9.444;2022-07-26T05:50:51;5.47;;;3.47;;
7517;SDS011;3800;48.922;9.444;2022-07-26T05:53:20;3.23;;;2.90;;
7517;SDS011;3800;48.922;9.444;2022-07-26T05:55:48;5.20;;;2.90;;
7517;SDS011;3800;48.922;9.444;2022-07-26T06:00:51;2.60;;;2.40;;
7517;SDS011;3800;48.922;9.444;2022-07-26T06:03:19;3.53;;;2.60;;
7517;SDS011;3800;48.922;9.444;2022-07-26T06:05:49;3.37;;;2.70;;
7517;SDS011;3800;48.922;9.444;2022-07-26T06:08:19;4.30;;;2.73;;
7517;SDS011;3800;48.922;9.444;2022-07-26T06:10:48;3.43;;;2.70;;
7517;SDS011;3800;48.922;9.444;2022-07-26T06:13:16;3.67;;;2.83;;
7517;SDS011;3800;48.922;9.444;2022-07-26T06:15:44;3.37;;;2.70;;
7517;SDS011;3800;48.922;9.444;2022-07-26T06:18:13;4.87;;;3.00;;
7517;SDS011;3800;48.922;9.444;2022-07-26T06:20:42;5.13;;;2.83;;
7517;SDS011;3800;48.922;9.444;2022-07-26T06:23:10;4.50;;;2.70;;
7517;SDS011;3800;48.922;9.444;2022-07-26T06:25:38;3.83;;;2.63;;
7517;SDS011;3800;48.922;9.444;2022-07-26T06:28:07;3.83;;;2.90;;
7517;SDS011;3800;48.922;9.444;2022-07-26T06:30:35;3.17;;;2.87;;
7517;SDS011;3800;48.922;9.444;2022-07-26T06:33:03;4.57;;;2.87;;
7517;SDS011;3800;48.922;9.444;2022-07-26T06:35:31;5.20;;;2.67;;
7517;SDS011;3800;48.922;9.444;2022-07-26T06:38:00;6.93;;;2.90;;
7517;SDS011;3800;48.922;9.444;2022-07-26T06:40:28;4.33;;;2.93;;
7517;SDS011;3800;48.922;9.444;2022-07-26T06:42:56;4.63;;;3.00;;
7517;SDS011;3800;48.922;9.444;2022-07-26T06:45:26;4.43;;;2.67;;
7517;SDS011;3800;48.922;9.444;2022-07-26T06:47:54;3.43;;;2.83;;
7517;SDS011;3800;48.922;9.444;2022-07-26T06:50:23;4.50;;;3.10;;
7517;SDS011;3800;48.922;9.444;2022-07-26T06:52:51;5.47;;;2.83;;
7517;SDS011;3800;48.922;9.444;2022-07-26T06:55:19;5.17;;;2.90;;
7517;SDS011;3800;48.922;9.444;2022-07-26T06:57:48;4.73;;;2.60;;
7517;SDS011;3800;48.922;9.444;2022-07-26T07:00:16;2.37;;;2.17;;
7517;SDS011;3800;48.922;9.444;2022-07-26T07:02:44;3.97;;;2.63;;
7517;SDS011;3800;48.922;9.444;2022-07-26T07:05:13;2.90;;;2.40;;
7517;SDS011;3800;48.922;9.444;2022-07-26T07:07:41;3.17;;;2.50;;
7517;SDS011;3800;48.922;9.444;2022-07-26T07:10:10;3.83;;;2.20;;
7517;SDS011;3800;48.922;9.444;2022-07-26T07:12:38;2.63;;;2.10;;
7517;SDS011;3800;48.922;9.444;2022-07-26T07:15:07;4.13;;;2.20;;
7517;SDS011;3800;48.922;9.444;2022-07-26T07:17:36;4.63;;;2.23;;
7517;SDS011;3800;48.922;9.444;2022-07-26T07:20:04;2.83;;;2.00;;
7517;SDS011;3800;48.922;9.444;2022-07-26T07:22:33;3.93;;;1.70;;
7517;SDS011;3800;48.922;9.444;2022-07-26T07:25:01;3.53;;;1.80;;
7517;SDS011;3800;48.922;9.444;2022-07-26T07:27:30;4.67;;;2.10;;
7517;SDS011;3800;48.922;9.444;2022-07-26T07:29:59;3.17;;;2.10;;
7517;SDS011;3800;48.922;9.444;2022-07-26T07:32:27;2.30;;;1.90;;
7517;SDS011;3800;48.922;9.444;2022-07-26T07:34:55;4.77;;;2.10;;
7517;SDS011;3800;48.922;9.444;2022-07-26T07:37:23;2.63;;;1.70;;
7517;SDS011;3800;48.922;9.444;2022-07-26T07:39:52;2.63;;;1.90;;
7517;SDS011;3800;48.922;9.444;2022-07-26T07:42:20;2.57;;;1.53;;
7517;SDS011;3800;48.922;9.444;2022-07-26T07:44:48;3.17;;;1.50;;
7517;SDS011;3800;48.922;9.444;2022-07-26T07:47:16;5.90;;;1.93;;
7517;SDS011;3800;48.922;9.444;2022-07-26T07:49:45;3.67;;;1.63;;
7517;SDS011;3800;48.922;9.444;2022-07-26T07:52:13;2.63;;;1.60;;
7517;SDS011;3800;48.922;9.444;2022-07-26T07:54:42;2.80;;;1.80;;
7517;SDS011;3800;48.922;9.444;2022-07-26T07:57:10;3.57;;;1.57;;
7517;SDS011;3800;48.922;9.444;2022-07-26T07:59:39;1.80;;;1.50;;
7517;SDS011;3800;48.922;9.444;2022-07-26T08:02:07;2.13;;;1.60;;
7517;SDS011;3800;48.922;9.444;2022-07-26T08:04:35;3.57;;;2.03;;
7517;SDS011;3800;48.922;9.444;2022-07-26T08:07:03;2.87;;;1.53;;
7517;SDS011;3800;48.922;9.444;2022-07-26T08:09:32;5.17;;;1.50;;
7517;SDS011;3800;48.922;9.444;2022-07-26T08:12:00;2.90;;;1.53;;
7517;SDS011;3800;48.922;9.444;2022-07-26T08:14:28;4.50;;;1.70;;
7517;SDS011;3800;48.922;9.444;2022-07-26T08:16:56;3.53;;;1.43;;
7517;SDS011;3800;48.922;9.444;2022-07-26T08:19:25;3.23;;;1.60;;
7517;SDS011;3800;48.922;9.444;2022-07-26T08:21:53;4.07;;;1.40;;
7517;SDS011;3800;48.922;9.444;2022-07-26T08:24:22;4.03;;;1.57;;
7517;SDS011;3800;48.922;9.444;2022-07-26T08:26:50;2.83;;;1.77;;
7517;SDS011;3800;48.922;9.444;2022-07-26T08:29:18;4.03;;;1.50;;
7517;SDS011;3800;48.922;9.444;2022-07-26T08:31:47;1.97;;;1.50;;
7517;SDS011;3800;48.922;9.444;2022-07-26T08:34:15;2.00;;;1.10;;
7517;SDS011;3800;48.922;9.444;2022-07-26T08:36:44;3.47;;;1.43;;
7517;SDS011;3800;48.922;9.444;2022-07-26T08:39:12;3.10;;;1.33;;
7517;SDS011;3800;48.922;9.444;2022-07-26T08:41:41;5.07;;;1.60;;
7517;SDS011;3800;48.922;9.444;2022-07-26T08:44:10;2.20;;;1.23;;
7517;SDS011;3800;48.922;9.444;2022-07-26T08:46:39;5.67;;;1.53;;
7517;SDS011;3800;48.922;9.444;2022-07-26T08:49:07;3.83;;;1.40;;
7517;SDS011;3800;48.922;9.444;2022-07-26T08:51:37;5.50;;;1.40;;
7517;SDS011;3800;48.922;9.444;2022-07-26T08:54:05;2.87;;;1.30;;
7517;SDS011;3800;48.922;9.444;2022-07-26T08:56:34;3.27;;;1.20;;
7517;SDS011;3800;48.922;9.444;2022-07-26T09:04:18;3.93;;;1.27;;
7517;SDS011;3800;48.922;9.444;2022-07-26T09:09:21;2.63;;;1.33;;
7517;SDS011;3800;48.922;9.444;2022-07-26T09:11:49;2.00;;;1.20;;
7517;SDS011;3800;48.922;9.444;2022-07-26T09:14:18;1.80;;;1.00;;
7517;SDS011;3800;48.922;9.444;2022-07-26T09:19:24;2.27;;;1.10;;
7517;SDS011;3800;48.922;9.444;2022-07-26T09:21:52;2.30;;;1.10;;
7517;SDS011;3800;48.922;9.444;2022-07-26T09:26:56;3.47;;;1.00;;
7517;SDS011;3800;48.922;9.444;2022-07-26T09:29:24;4.50;;;1.30;;
7517;SDS011;3800;48.922;9.444;2022-07-26T09:31:52;2.43;;;1.30;;
7517;SDS011;3800;48.922;9.444;2022-07-26T09:34:23;2.57;;;1.30;;
7517;SDS011;3800;48.922;9.444;2022-07-26T09:36:51;4.20;;;1.50;;
7517;SDS011;3800;48.922;9.444;2022-07-26T09:39:19;2.83;;;1.40;;
7517;SDS011;3800;48.922;9.444;2022-07-26T09:41:47;2.17;;;1.20;;
7517;SDS011;3800;48.922;9.444;2022-07-26T09:44:18;2.03;;;1.33;;
7517;SDS011;3800;48.922;9.444;2022-07-26T09:46:51;3.10;;;1.30;;
7517;SDS011;3800;48.922;9.444;2022-07-26T09:49:21;2.80;;;1.37;;
7517;SDS011;3800;48.922;9.444;2022-07-26T09:51:50;2.53;;;1.20;;
7517;SDS011;3800;48.922;9.444;2022-07-26T09:54:19;2.10;;;1.20;;
7517;SDS011;3800;48.922;9.444;2022-07-26T09:56:48;1.87;;;1.30;;
7517;SDS011;3800;48.922;9.444;2022-07-26T09:59:16;1.80;;;1.07;;
7517;SDS011;3800;48.922;9.444;2022-07-26T10:01:44;4.00;;;1.10;;
7517;SDS011;3800;48.922;9.444;2022-07-26T10:04:12;4.43;;;1.13;;
7517;SDS011;3800;48.922;9.444;2022-07-26T10:06:41;4.20;;;1.20;;
7517;SDS011;3800;48.922;9.444;2022-07-26T10:09:09;1.93;;;1.00;;
7517;SDS011;3800;48.922;9.444;2022-07-26T10:11:41;1.50;;;1.07;;
7517;SDS011;3800;48.922;9.444;2022-07-26T10:16:55;3.00;;;1.10;;
7517;SDS011;3800;48.922;9.444;2022-07-26T10:19:42;2.63;;;1.40;;
7517;SDS011;3800;48.922;9.444;2022-07-26T10:25:01;2.40;;;1.30;;
7517;SDS011;3800;48.922;9.444;2022-07-26T10:28:03;2.70;;;1.10;;
7517;SDS011;3800;48.922;9.444;2022-07-26T10:30:22;3.80;;;1.13;;
7517;SDS011;3800;48.922;9.444;2022-07-26T10:33:03;3.73;;;1.10;;
7517;SDS011;3800;48.922;9.444;2022-07-26T10:35:40;1.63;;;1.10;;
7517;SDS011;3800;48.922;9.444;2022-07-26T10:38:13;2.17;;;1.20;;
7517;SDS011;3800;48.922;9.444;2022-07-26T10:43:21;2.90;;;1.13;;
7517;SDS011;3800;48.922;9.444;2022-07-26T10:45:52;3.37;;;1.20;;
7517;SDS011;3800;48.922;9.444;2022-07-26T10:48:24;1.53;;;1.23;;
7517;SDS011;3800;48.922;9.444;2022-07-26T10:50:52;3.47;;;1.40;;
7517;SDS011;3800;48.922;9.444;2022-07-26T10:53:22;3.17;;;1.03;;
7517;SDS011;3800;48.922;9.444;2022-07-26T10:55:50;1.67;;;1.20;;
7517;SDS011;3800;48.922;9.444;2022-07-26T10:58:20;1.53;;;1.10;;
7517;SDS011;3800;48.922;9.444;2022-07-26T11:00:53;2.07;;;1.07;;
7517;SDS011;3800;48.922;9.444;2022-07-26T11:03:21;3.03;;;1.30;;
7517;SDS011;3800;48.922;9.444;2022-07-26T11:05:49;1.53;;;1.20;;
7517;SDS011;3800;48.922;9.444;2022-07-26T11:08:17;2.30;;;1.30;;
7517;SDS011;3800;48.922;9.444;2022-07-26T11:10:46;1.70;;;1.00;;
7517;SDS011;3800;48.922;9.444;2022-07-26T11:13:21;1.43;;;1.00;;
7517;SDS011;3800;48.922;9.444;2022-07-26T11:15:51;1.73;;;1.10;;
7517;SDS011;3800;48.922;9.444;2022-07-26T11:18:19;2.50;;;1.03;;
7517;SDS011;3800;48.922;9.444;2022-07-26T11:20:50;3.33;;;1.13;;
7517;SDS011;3800;48.922;9.444;2022-07-26T11:23:21;3.10;;;1.20;;
7517;SDS011;3800;48.922;9.444;2022-07-26T11:28:25;3.03;;;1.10;;
7517;SDS011;3800;48.922;9.444;2022-07-26T11:30:54;1.77;;;1.10;;
7517;SDS011;3800;48.922;9.444;2022-07-26T11:36:02;2.07;;;1.00;;
7517;SDS011;3800;48.922;9.444;2022-07-26T11:41:11;2.93;;;1.30;;
7517;SDS011;3800;48.922;9.444;2022-07-26T11:43:41;1.80;;;1.13;;
7517;SDS011;3800;48.922;9.444;2022-07-26T11:46:09;2.83;;;1.20;;
7517;SDS011;3800;48.922;9.444;2022-07-26T11:48:37;1.50;;;1.00;;
7517;SDS011;3800;48.922;9.444;2022-07-26T11:51:08;2.60;;;1.00;;
7517;SDS011;3800;48.922;9.444;2022-07-26T11:53:38;1.90;;;1.00;;
7517;SDS011;3800;48.922;9.444;2022-07-26T11:56:11;3.27;;;1.13;;
7517;SDS011;3800;48.922;9.444;2022-07-26T11:58:39;1.87;;;1.10;;
7517;SDS011;3800;48.922;9.444;2022-07-26T12:01:07;1.93;;;1.00;;
7517;SDS011;3800;48.922;9.444;2022-07-26T12:03:36;3.27;;;1.10;;
7517;SDS011;3800;48.922;9.444;2022-07-26T12:06:05;1.37;;;0.97;;
7517;SDS011;3800;48.922;9.444;2022-07-26T12:08:39;1.90;;;1.10;;
7517;SDS011;3800;48.922;9.444;2022-07-26T12:11:11;2.90;;;1.17;;
7517;SDS011;3800;48.922;9.444;2022-07-26T12:19:01;1.87;;;1.07;;
7517;SDS011;3800;48.922;9.444;2022-07-26T12:27:06;2.47;;;0.90;;
7517;SDS011;3800;48.922;9.444;2022-07-26T12:29:37;1.37;;;0.90;;
7517;SDS011;3800;48.922;9.444;2022-07-26T12:32:06;1.53;;;0.90;;
7517;SDS011;3800;48.922;9.444;2022-07-26T12:34:37;1.07;;;0.90;;
7517;SDS011;3800;48.922;9.444;2022-07-26T12:37:09;1.27;;;1.00;;
7517;SDS011;3800;48.922;9.444;2022-07-26T12:39:36;2.20;;;1.00;;
7517;SDS011;3800;48.922;9.444;2022-07-26T12:44:47;5.13;;;0.90;;
7517;SDS011;3800;48.922;9.444;2022-07-26T12:47:16;2.70;;;1.03;;
7517;SDS011;3800;48.922;9.444;2022-07-26T12:49:44;2.53;;;1.00;;
7517;SDS011;3800;48.922;9.444;2022-07-26T12:52:14;1.00;;;0.80;;
7517;SDS011;3800;48.922;9.444;2022-07-26T12:54:43;1.00;;;0.80;;
7517;SDS011;3800;48.922;9.444;2022-07-26T12:57:10;1.83;;;1.00;;
7517;SDS011;3800;48.922;9.444;2022-07-26T12:59:39;1.17;;;1.00;;
7517;SDS011;3800;48.922;9.444;2022-07-26T13:02:07;3.30;;;1.00;;
7517;SDS011;3800;48.922;9.444;2022-07-26T13:04:35;1.17;;;0.90;;
7517;SDS011;3800;48.922;9.444;2022-07-26T13:07:03;1.90;;;0.90;;
7517;SDS011;3800;48.922;9.444;2022-07-26T13:09:31;2.43;;;0.97;;
7517;SDS011;3800;48.922;9.444;2022-07-26T13:12:00;3.30;;;0.97;;
7517;SDS011;3800;48.922;9.444;2022-07-26T13:14:30;3.13;;;1.20;;
7517;SDS011;3800;48.922;9.444;2022-07-26T13:16:58;1.67;;;0.97;;
7517;SDS011;3800;48.922;9.444;2022-07-26T13:19:26;2.17;;;0.90;;
7517;SDS011;3800;48.922;9.444;2022-07-26T13:21:55;2.80;;;1.00;;
7517;SDS011;3800;48.922;9.444;2022-07-26T13:24:24;1.80;;;1.00;;
7517;SDS011;3800;48.922;9.444;2022-07-26T13:26:52;1.47;;;0.90;;
7517;SDS011;3800;48.922;9.444;2022-07-26T13:29:20;2.70;;;0.90;;
7517;SDS011;3800;48.922;9.444;2022-07-26T13:31:48;5.03;;;0.90;;
7517;SDS011;3800;48.922;9.444;2022-07-26T13:34:17;1.87;;;1.10;;
7517;SDS011;3800;48.922;9.444;2022-07-26T13:36:45;2.00;;;1.00;;
7517;SDS011;3800;48.922;9.444;2022-07-26T13:39:13;1.73;;;1.13;;
7517;SDS011;3800;48.922;9.444;2022-07-26T13:41:41;2.53;;;1.10;;
7517;SDS011;3800;48.922;9.444;2022-07-26T13:44:09;4.27;;;0.90;;
7517;SDS011;3800;48.922;9.444;2022-07-26T13:46:38;1.77;;;1.00;;
7517;SDS011;3800;48.922;9.444;2022-07-26T13:49:06;3.73;;;1.07;;
7517;SDS011;3800;48.922;9.444;2022-07-26T13:51:35;1.27;;;1.00;;
7517;SDS011;3800;48.922;9.444;2022-07-26T13:54:08;1.80;;;0.90;;
7517;SDS011;3800;48.922;9.444;2022-07-26T13:56:36;2.13;;;0.90;;
7517;SDS011;3800;48.922;9.444;2022-07-26T13:59:04;1.93;;;0.90;;
7517;SDS011;3800;48.922;9.444;2022-07-26T14:01:33;1.67;;;1.00;;
7517;SDS011;3800;48.922;9.444;2022-07-26T14:04:02;1.00;;;0.90;;
7517;SDS011;3800;48.922;9.444;2022-07-26T14:06:31;1.17;;;1.00;;
7517;SDS011;3800;48.922;9.444;2022-07-26T14:09:00;1.17;;;0.90;;
7517;SDS011;3800;48.922;9.444;2022-07-26T14:11:27;3.37;;;1.20;;
7517;SDS011;3800;48.922;9.444;2022-07-26T14:13:57;2.70;;;0.90;;
7517;SDS011;3800;48.922;9.444;2022-07-26T14:16:25;1.77;;;0.93;;
7517;SDS011;3800;48.922;9.444;2022-07-26T14:18:53;1.30;;;0.90;;
7517;SDS011;3800;48.922;9.444;2022-07-26T14:21:21;1.50;;;1.00;;
7517;SDS011;3800;48.922;9.444;2022-07-26T14:23:51;2.17;;;0.87;;
7517;SDS011;3800;48.922;9.444;2022-07-26T14:26:19;3.70;;;0.90;;
7517;SDS011;3800;48.922;9.444;2022-07-26T14:28:47;1.73;;;1.17;;
7517;SDS011;3800;48.922;9.444;2022-07-26T14:31:16;2.33;;;1.17;;
7517;SDS011;3800;48.922;9.444;2022-07-26T14:33:44;1.30;;;0.90;;
7517;SDS011;3800;48.922;9.444;2022-07-26T14:36:12;2.67;;;0.93;;
7517;SDS011;3800;48.922;9.444;2022-07-26T14:38:41;4.03;;;1.20;;
7517;SDS011;3800;48.922;9.444;2022-07-26T14:41:09;0.90;;;0.67;;
7517;SDS011;3800;48.922;9.444;2022-07-26T14:43:37;2.40;;;1.00;;
7517;SDS011;3800;48.922;9.444;2022-07-26T14:46:05;2.37;;;0.90;;
7517;SDS011;3800;48.922;9.444;2022-07-26T14:48:34;2.60;;;0.90;;
7517;SDS011;3800;48.922;9.444;2022-07-26T14:51:03;1.93;;;1.00;;
7517;SDS011;3800;48.922;9.444;2022-07-26T14:53:31;1.50;;;1.00;;
7517;SDS011;3800;48.922;9.444;2022-07-26T14:55:59;3.07;;;0.90;;
7517;SDS011;3800;48.922;9.444;2022-07-26T14:58:27;0.97;;;0.80;;
7517;SDS011;3800;48.922;9.444;2022-07-26T15:00:55;2.33;;;1.00;;
7517;SDS011;3800;48.922;9.444;2022-07-26T15:03:24;1.13;;;0.80;;
7517;SDS011;3800;48.922;9.444;2022-07-26T15:05:52;3.63;;;1.00;;
7517;SDS011;3800;48.922;9.444;2022-07-26T15:08:20;1.43;;;0.80;;
7517;SDS011;3800;48.922;9.444;2022-07-26T15:10:49;2.77;;;1.07;;
7517;SDS011;3800;48.922;9.444;2022-07-26T15:13:17;0.80;;;0.80;;
7517;SDS011;3800;48.922;9.444;2022-07-26T15:15:46;2.33;;;1.10;;
7517;SDS011;3800;48.922;9.444;2022-07-26T15:18:15;1.93;;;1.10;;
7517;SDS011;3800;48.922;9.444;2022-07-26T15:20:44;3.07;;;0.90;;
7517;SDS011;3800;48.922;9.444;2022-07-26T15:23:12;2.63;;;1.70;;
7517;SDS011;3800;48.922;9.444;2022-07-26T15:25:40;1.67;;;1.10;;
7517;SDS011;3800;48.922;9.444;2022-07-26T15:28:09;1.73;;;1.00;;
7517;SDS011;3800;48.922;9.444;2022-07-26T15:30:37;1.83;;;0.90;;
7517;SDS011;3800;48.922;9.444;2022-07-26T15:33:05;2.90;;;1.00;;
7517;SDS011;3800;48.922;9.444;2022-07-26T15:35:33;3.43;;;1.10;;
7517;SDS011;3800;48.922;9.444;2022-07-26T15:38:02;1.70;;;1.00;;
7517;SDS011;3800;48.922;9.444;2022-07-26T15:40:31;2.53;;;1.20;;
7517;SDS011;3800;48.922;9.444;2022-07-26T15:42:59;3.07;;;1.00;;
7517;SDS011;3800;48.922;9.444;2022-07-26T15:45:27;1.77;;;1.10;;
7517;SDS011;3800;48.922;9.444;2022-07-26T15:47:55;1.47;;;1.00;;
7517;SDS011;3800;48.922;9.444;2022-07-26T15:50:24;1.20;;;1.00;;
7517;SDS011;3800;48.922;9.444;2022-07-26T15:52:52;2.83;;;1.10;;
7517;SDS011;3800;48.922;9.444;2022-07-26T15:55:20;1.60;;;0.90;;
7517;SDS011;3800;48.922;9.444;2022-07-26T15:57:48;1.47;;;0.97;;
7517;SDS011;3800;48.922;9.444;2022-07-26T16:00:17;2.47;;;0.80;;
7517;SDS011;3800;48.922;9.444;2022-07-26T16:02:45;1.07;;;0.80;;
7517;SDS011;3800;48.922;9.444;2022-07-26T16:05:13;1.97;;;0.97;;
7517;SDS011;3800;48.922;9.444;2022-07-26T16:07:42;1.10;;;0.80;;
7517;SDS011;3800;48.922;9.444;2022-07-26T16:10:10;2.03;;;0.90;;